createdAt,value
2022-08-30T00:01:27.732Z,18.17
2022-08-30T00:03:58.303Z,18.33
2022-08-30T00:06:28.347Z,18.30
2022-08-30T00:08:59.692Z,18.21
2022-08-30T00:11:29.077Z,18.19
2022-08-30T00:13:58.213Z,18.17
2022-08-30T00:16:26.887Z,18.15
2022-08-30T00:18:55.120Z,18.11
2022-08-30T00:21:23.822Z,18.05
2022-08-30T00:23:51.808Z,18.16
2022-08-30T00:26:22.057Z,18.06
2022-08-30T00:28:49.671Z,18.02
2022-08-30T00:31:17.389Z,18.08
2022-08-30T00:33:45.035Z,18.04
2022-08-30T00:36:12.667Z,17.99
2022-08-30T00:38:40.264Z,17.98
2022-08-30T00:41:08.543Z,17.95
2022-08-30T00:43:37.951Z,17.91
2022-08-30T00:46:08.278Z,17.84
2022-08-30T00:48:40.765Z,17.73
2022-08-30T00:51:11.561Z,17.71
2022-08-30T00:53:43.191Z,17.53
2022-08-30T00:56:12.011Z,17.45
2022-08-30T00:58:45.443Z,17.44
2022-08-30T01:01:13.468Z,17.35
2022-08-30T01:03:43.190Z,17.39
2022-08-30T01:06:11.265Z,17.31
2022-08-30T01:08:39.259Z,17.22
2022-08-30T01:11:07.985Z,17.17
2022-08-30T01:13:36.713Z,17.17
2022-08-30T01:16:06.348Z,17.28
2022-08-30T01:18:36.568Z,17.22
2022-08-30T01:21:12.533Z,17.20
2022-08-30T01:23:45.467Z,17.15
2022-08-30T01:26:14.572Z,17.22
2022-08-30T01:28:47.423Z,17.14
2022-08-30T01:31:15.369Z,17.08
2022-08-30T01:33:43.605Z,17.14
2022-08-30T01:36:14.024Z,17.04
2022-08-30T01:38:49.307Z,17.06
2022-08-30T01:41:20.340Z,17.00
2022-08-30T01:43:49.597Z,17.01
2022-08-30T01:46:19.845Z,16.96
2022-08-30T01:48:53.788Z,16.96
2022-08-30T01:51:24.479Z,17.05
2022-08-30T01:53:53.859Z,16.93
2022-08-30T01:56:21.486Z,16.86
2022-08-30T01:58:49.144Z,16.86
2022-08-30T02:01:19.680Z,16.82
2022-08-30T02:03:48.154Z,16.76
2022-08-30T02:06:21.006Z,16.74
2022-08-30T02:08:49.556Z,16.73
2022-08-30T02:11:19.171Z,16.74
2022-08-30T02:13:47.546Z,16.73
2022-08-30T02:16:17.620Z,16.71
2022-08-30T02:18:46.420Z,16.66
2022-08-30T02:21:14.439Z,16.67
2022-08-30T02:23:43.148Z,16.61
2022-08-30T02:26:11.375Z,16.62
2022-08-30T02:28:42.895Z,16.60
2022-08-30T02:31:20.435Z,16.58
2022-08-30T02:33:50.125Z,16.52
2022-08-30T02:36:18.566Z,16.46
2022-08-30T02:38:46.406Z,16.44
2022-08-30T02:41:14.177Z,16.42
2022-08-30T02:43:43.286Z,16.44
2022-08-30T02:46:11.185Z,16.49
2022-08-30T02:48:38.856Z,16.52
2022-08-30T02:51:09.319Z,16.49
2022-08-30T02:53:39.769Z,16.51
2022-08-30T02:56:07.847Z,16.44
2022-08-30T02:58:35.812Z,16.40
2022-08-30T03:01:06.638Z,16.35
2022-08-30T03:03:34.745Z,16.39
2022-08-30T03:06:03.485Z,16.39
2022-08-30T03:08:31.275Z,16.65
2022-08-30T03:10:59.139Z,16.72
2022-08-30T03:13:26.830Z,16.71
2022-08-30T03:15:54.709Z,16.85
2022-08-30T03:18:24.625Z,16.90
2022-08-30T03:20:54.588Z,16.81
2022-08-30T03:23:24.478Z,16.89
2022-08-30T03:25:53.391Z,16.88
2022-08-30T03:28:21.231Z,16.71
2022-08-30T03:30:48.972Z,16.76
2022-08-30T03:33:18.483Z,16.74
2022-08-30T03:35:49.613Z,16.52
2022-08-30T03:38:17.431Z,16.55
2022-08-30T03:40:45.139Z,16.42
2022-08-30T03:43:13.182Z,16.31
2022-08-30T03:45:41.494Z,16.30
2022-08-30T03:48:09.302Z,16.16
2022-08-30T03:50:37.210Z,16.14
2022-08-30T03:53:06.214Z,16.15
2022-08-30T03:55:34.006Z,16.08
2022-08-30T03:58:01.606Z,16.05
2022-08-30T04:00:29.763Z,15.94
2022-08-30T04:02:57.405Z,15.94
2022-08-30T04:05:25.036Z,16.03
2022-08-30T04:07:52.898Z,16.01
2022-08-30T04:10:22.218Z,15.91
2022-08-30T04:12:50.778Z,15.88
2022-08-30T04:15:20.833Z,15.88
2022-08-30T04:17:48.884Z,15.89
2022-08-30T04:20:17.467Z,15.99
2022-08-30T04:22:45.167Z,15.96
2022-08-30T04:25:15.869Z,15.86
2022-08-30T04:27:46.269Z,15.94
2022-08-30T04:30:15.582Z,16.16
2022-08-30T04:32:43.658Z,16.29
2022-08-30T04:35:12.188Z,16.23
2022-08-30T04:37:40.574Z,16.28
2022-08-30T04:40:10.111Z,16.29
2022-08-30T04:42:38.322Z,16.31
2022-08-30T04:45:11.255Z,16.36
2022-08-30T04:47:39.762Z,16.21
2022-08-30T04:50:08.615Z,16.28
2022-08-30T04:52:36.278Z,16.21
2022-08-30T04:55:05.034Z,16.17
2022-08-30T04:57:32.596Z,16.32
2022-08-30T05:00:00.193Z,16.30
2022-08-30T05:02:29.176Z,16.39
2022-08-30T05:05:14.793Z,16.38
2022-08-30T05:07:42.509Z,16.46
2022-08-30T05:10:11.647Z,16.66
2022-08-30T05:12:39.677Z,16.78
2022-08-30T05:15:08.619Z,16.89
2022-08-30T05:17:38.061Z,16.97
2022-08-30T05:20:07.076Z,16.95
2022-08-30T05:22:37.406Z,17.04
2022-08-30T05:25:06.134Z,17.16
2022-08-30T05:27:34.171Z,17.37
2022-08-30T05:30:06.273Z,17.53
2022-08-30T05:32:33.926Z,17.80
2022-08-30T05:35:02.922Z,18.40
2022-08-30T05:37:30.584Z,18.32
2022-08-30T05:39:58.273Z,18.37
2022-08-30T05:42:26.841Z,18.21
2022-08-30T05:44:55.458Z,18.45
2022-08-30T05:47:23.671Z,18.53
2022-08-30T05:49:51.821Z,18.73
2022-08-30T05:52:20.857Z,19.32
2022-08-30T05:54:53.699Z,19.55
2022-08-30T05:57:22.123Z,19.60
2022-08-30T05:59:49.797Z,20.24
2022-08-30T06:02:18.118Z,21.30
2022-08-30T06:04:45.914Z,22.22
2022-08-30T06:07:15.766Z,23.25
2022-08-30T06:09:46.414Z,23.95
2022-08-30T06:12:14.106Z,24.56
2022-08-30T06:14:41.850Z,25.31
2022-08-30T06:17:09.534Z,25.60
2022-08-30T06:19:37.808Z,25.44
2022-08-30T06:22:05.948Z,25.62
2022-08-30T06:24:56.503Z,25.96
2022-08-30T06:27:25.359Z,24.65
2022-08-30T06:29:53.126Z,25.34
2022-08-30T06:32:20.755Z,25.60
2022-08-30T06:34:48.627Z,25.82
2022-08-30T06:37:29.281Z,25.63
2022-08-30T06:39:58.430Z,26.29
2022-08-30T06:42:31.881Z,26.42
2022-08-30T06:44:59.976Z,26.45
2022-08-30T06:47:28.388Z,26.68
2022-08-30T06:49:56.734Z,27.41
2022-08-30T06:52:24.947Z,27.72
2022-08-30T06:54:54.294Z,27.78
2022-08-30T06:57:21.983Z,26.86
2022-08-30T06:59:55.329Z,26.22
2022-08-30T07:02:25.394Z,25.99
2022-08-30T07:04:53.112Z,26.85
2022-08-30T07:07:21.038Z,26.59
2022-08-30T07:09:49.219Z,27.54
2022-08-30T07:12:17.080Z,28.10
2022-08-30T07:14:44.835Z,27.37
2022-08-30T07:17:34.768Z,27.03
2022-08-30T07:20:04.762Z,27.14
2022-08-30T07:22:33.424Z,26.05
2022-08-30T07:25:01.571Z,25.33
2022-08-30T07:27:29.528Z,24.79
2022-08-30T07:29:58.791Z,25.61
2022-08-30T07:32:27.821Z,25.29
2022-08-30T07:34:56.543Z,26.12
2022-08-30T07:37:25.031Z,27.30
2022-08-30T07:39:53.371Z,27.76
2022-08-30T07:42:21.042Z,27.86
2022-08-30T07:44:48.830Z,27.21
2022-08-30T07:47:16.750Z,27.49
2022-08-30T07:49:45.751Z,26.79
2022-08-30T07:52:13.410Z,27.82
2022-08-30T07:54:41.050Z,27.55
2022-08-30T07:57:08.729Z,27.69
2022-08-30T07:59:36.655Z,25.12
2022-08-30T08:02:04.623Z,26.41
2022-08-30T08:04:33.213Z,27.33
2022-08-30T08:07:02.554Z,26.74
2022-08-30T08:09:30.326Z,26.04
2022-08-30T08:11:58.000Z,26.71
2022-08-30T08:14:25.664Z,26.87
2022-08-30T08:16:53.662Z,28.35
2022-08-30T08:19:21.655Z,28.03
2022-08-30T08:21:55.713Z,28.59
2022-08-30T08:24:38.661Z,28.01
2022-08-30T08:27:06.568Z,28.46
2022-08-30T08:29:34.214Z,28.34
2022-08-30T08:32:01.824Z,27.71
2022-08-30T08:34:29.443Z,27.18
2022-08-30T08:36:57.407Z,27.00
2022-08-30T08:39:25.002Z,26.70
2022-08-30T08:42:05.583Z,27.86
2022-08-30T08:44:50.572Z,26.76
2022-08-30T08:47:27.189Z,26.97
2022-08-30T08:49:59.416Z,25.37
2022-08-30T08:52:49.516Z,25.13
2022-08-30T08:55:21.354Z,25.53
2022-08-30T08:57:52.343Z,25.90
2022-08-30T09:00:20.202Z,26.12
2022-08-30T09:02:55.903Z,26.24
2022-08-30T09:05:26.485Z,26.42
2022-08-30T09:08:00.581Z,26.81
2022-08-30T09:10:49.427Z,26.65
2022-08-30T09:13:19.723Z,26.97
2022-08-30T09:15:54.802Z,26.65
2022-08-30T09:18:42.977Z,26.52
2022-08-30T09:21:14.723Z,25.92
2022-08-30T09:23:51.842Z,25.83
2022-08-30T09:26:30.667Z,24.95
2022-08-30T09:29:00.967Z,24.93
2022-08-30T09:31:30.802Z,25.60
2022-08-30T09:34:03.385Z,25.68
2022-08-30T09:36:35.073Z,25.46
2022-08-30T09:39:05.837Z,25.72
2022-08-30T09:41:40.114Z,25.66
2022-08-30T09:44:15.189Z,25.59
2022-08-30T09:46:48.770Z,25.86
2022-08-30T09:49:34.090Z,25.82
2022-08-30T09:52:16.857Z,25.44
2022-08-30T09:54:53.227Z,25.73
2022-08-30T09:57:34.074Z,25.81
2022-08-30T10:00:06.611Z,25.75
2022-08-30T10:03:00.141Z,25.87
2022-08-30T10:05:33.555Z,25.60
2022-08-30T10:08:12.894Z,25.18
2022-08-30T10:10:49.459Z,25.59
2022-08-30T10:13:35.693Z,25.99
2022-08-30T10:16:15.790Z,26.18
2022-08-30T10:18:54.949Z,26.28
2022-08-30T10:21:29.850Z,26.23
2022-08-30T10:24:02.028Z,26.14
2022-08-30T10:26:33.997Z,26.24
2022-08-30T10:29:07.069Z,26.37
2022-08-30T10:31:41.591Z,26.43
2022-08-30T10:34:15.444Z,25.88
2022-08-30T10:36:47.238Z,26.34
2022-08-30T10:39:22.172Z,26.35
2022-08-30T10:41:54.291Z,26.31
2022-08-30T10:44:26.483Z,26.74
2022-08-30T10:47:09.464Z,26.93
2022-08-30T10:49:42.960Z,27.13
2022-08-30T10:52:25.662Z,26.73
2022-08-30T10:54:56.327Z,26.57
2022-08-30T10:57:25.687Z,27.02
2022-08-30T10:59:59.342Z,26.74
2022-08-30T11:02:58.114Z,27.16
2022-08-30T11:05:48.491Z,26.62
2022-08-30T11:08:30.131Z,26.76
2022-08-30T11:11:12.957Z,26.58
2022-08-30T11:13:42.990Z,26.52
2022-08-30T11:16:15.635Z,26.76
2022-08-30T11:18:51.169Z,26.72
2022-08-30T11:21:24.385Z,26.95
2022-08-30T11:24:11.427Z,26.91
2022-08-30T11:27:06.750Z,27.18
2022-08-30T11:29:42.607Z,27.02
2022-08-30T11:32:58.291Z,27.17
2022-08-30T11:35:48.669Z,27.62
2022-08-30T11:38:41.088Z,27.87
2022-08-30T11:41:14.080Z,27.83
2022-08-30T11:43:55.598Z,27.27
2022-08-30T11:46:38.508Z,27.43
2022-08-30T11:50:00.649Z,27.21
2022-08-30T11:52:45.333Z,27.91
2022-08-30T11:55:41.610Z,28.03
2022-08-30T11:58:26.181Z,27.65
2022-08-30T12:01:42.230Z,27.82
2022-08-30T12:04:15.017Z,28.39
2022-08-30T12:06:49.472Z,28.54
2022-08-30T12:10:06.111Z,28.60
2022-08-30T12:12:55.389Z,28.51
2022-08-30T12:15:45.045Z,28.50
2022-08-30T12:18:30.447Z,28.64
2022-08-30T12:21:04.895Z,28.63
2022-08-30T12:23:44.589Z,28.76
2022-08-30T12:26:20.107Z,28.91
2022-08-30T12:28:51.965Z,28.70
2022-08-30T12:31:23.736Z,28.79
2022-08-30T12:33:56.594Z,28.73
2022-08-30T12:36:35.022Z,28.65
2022-08-30T12:39:07.943Z,28.75
2022-08-30T12:41:35.995Z,28.83
2022-08-30T12:44:17.283Z,28.96
2022-08-30T12:46:49.400Z,28.95
2022-08-30T12:49:18.772Z,29.16
2022-08-30T12:51:47.589Z,29.16
2022-08-30T12:54:19.464Z,29.17
2022-08-30T12:57:19.030Z,28.98
2022-08-30T12:59:59.553Z,28.84
2022-08-30T13:02:44.833Z,28.96
2022-08-30T13:05:48.329Z,29.20
2022-08-30T13:08:22.362Z,29.42
2022-08-30T13:10:52.787Z,29.43
2022-08-30T13:13:37.394Z,29.52
2022-08-30T13:16:21.512Z,29.46
2022-08-30T13:18:52.029Z,29.65
2022-08-30T13:21:28.646Z,29.73
2022-08-30T13:23:59.296Z,29.40
2022-08-30T13:26:31.472Z,29.29
2022-08-30T13:29:01.409Z,29.38
2022-08-30T13:31:30.747Z,29.34
2022-08-30T13:34:02.361Z,29.30
2022-08-30T13:36:33.507Z,29.47
2022-08-30T13:39:02.902Z,29.69
2022-08-30T13:41:33.931Z,29.73
2022-08-30T13:44:13.065Z,29.77
2022-08-30T13:46:47.596Z,29.72
2022-08-30T13:52:21.573Z,29.44
2022-08-30T13:54:50.968Z,29.17
2022-08-30T14:00:12.357Z,29.06
2022-08-30T14:02:45.393Z,29.01
2022-08-30T14:05:46.957Z,28.85
2022-08-30T14:08:06.451Z,28.80
2022-08-30T14:10:46.479Z,28.75
2022-08-30T14:13:15.012Z,28.77
2022-08-30T14:15:42.773Z,28.79
2022-08-30T14:18:13.529Z,28.94
2022-08-30T14:20:45.924Z,28.78
2022-08-30T14:23:13.543Z,28.63
2022-08-30T14:25:41.310Z,28.63
2022-08-30T14:28:09.898Z,28.36
2022-08-30T14:30:38.849Z,28.62
2022-08-30T14:33:07.117Z,28.75
2022-08-30T14:35:36.800Z,28.80
2022-08-30T14:38:06.588Z,28.88
2022-08-30T14:40:38.986Z,28.94
2022-08-30T14:43:06.770Z,29.03
2022-08-30T14:45:34.477Z,29.15
2022-08-30T14:48:06.240Z,29.12
2022-08-30T14:50:40.026Z,29.03
2022-08-30T14:53:09.477Z,29.22
2022-08-30T14:55:37.620Z,29.30
2022-08-30T14:58:06.833Z,29.46
2022-08-30T15:00:34.478Z,29.55
2022-08-30T15:03:03.495Z,29.43
2022-08-30T15:05:31.842Z,29.51
2022-08-30T15:08:00.564Z,29.59
2022-08-30T15:10:29.556Z,29.47
2022-08-30T15:12:57.173Z,29.46
2022-08-30T15:15:25.408Z,29.30
2022-08-30T15:17:53.327Z,29.16
2022-08-30T15:20:21.188Z,29.17
2022-08-30T15:22:48.811Z,29.14
2022-08-30T15:25:16.681Z,29.03
2022-08-30T15:27:47.270Z,28.77
2022-08-30T15:30:17.437Z,28.90
2022-08-30T15:32:48.601Z,28.81
2022-08-30T15:35:16.434Z,28.84
2022-08-30T15:37:44.222Z,28.80
2022-08-30T15:40:12.510Z,28.59
2022-08-30T15:42:40.904Z,28.68
2022-08-30T15:45:12.425Z,28.74
2022-08-30T15:47:40.125Z,28.82
2022-08-30T15:50:09.014Z,28.81
2022-08-30T15:52:36.926Z,28.93
2022-08-30T15:55:05.088Z,28.87
2022-08-30T15:57:33.477Z,28.89
2022-08-30T16:00:01.634Z,28.89
2022-08-30T16:02:32.010Z,28.94
2022-08-30T16:04:59.795Z,28.92
2022-08-30T16:07:27.896Z,28.91
2022-08-30T16:09:55.453Z,28.88
2022-08-30T16:12:23.995Z,28.74
2022-08-30T16:14:52.061Z,28.48
2022-08-30T16:17:19.911Z,28.31
2022-08-30T16:19:48.970Z,28.31
2022-08-30T16:22:18.645Z,28.18
2022-08-30T16:24:50.312Z,27.97
2022-08-30T16:27:18.140Z,28.04
2022-08-30T16:29:50.186Z,28.01
2022-08-30T16:32:18.371Z,27.93
2022-08-30T16:34:46.169Z,27.87
2022-08-30T16:37:16.391Z,27.75
2022-08-30T16:39:46.551Z,27.73
2022-08-30T16:42:14.974Z,27.70
2022-08-30T16:44:49.757Z,27.70
2022-08-30T16:47:17.734Z,27.63
2022-08-30T16:49:47.464Z,27.59
2022-08-30T16:52:16.734Z,27.59
2022-08-30T16:54:46.131Z,27.71
2022-08-30T16:57:19.738Z,27.65
2022-08-30T16:59:47.879Z,27.65
2022-08-30T17:02:20.166Z,27.73
2022-08-30T17:04:52.349Z,27.77
2022-08-30T17:07:22.768Z,27.77
2022-08-30T17:09:50.676Z,27.84
2022-08-30T17:12:26.801Z,27.90
2022-08-30T17:14:55.528Z,27.87
2022-08-30T17:17:23.555Z,27.82
2022-08-30T17:19:51.215Z,27.79
2022-08-30T17:22:19.165Z,27.75
2022-08-30T17:24:52.193Z,27.64
2022-08-30T17:27:21.055Z,27.56
2022-08-30T17:29:48.890Z,27.55
2022-08-30T17:32:16.458Z,27.39
2022-08-30T17:34:44.954Z,27.46
2022-08-30T17:37:13.555Z,27.40
2022-08-30T17:39:41.309Z,27.37
2022-08-30T17:42:10.330Z,27.28
2022-08-30T17:44:41.975Z,27.19
2022-08-30T17:47:10.060Z,27.12
2022-08-30T17:49:37.962Z,27.07
2022-08-30T17:52:06.046Z,26.99
2022-08-30T17:54:37.489Z,26.81
2022-08-30T17:57:10.737Z,26.66
2022-08-30T17:59:43.022Z,26.65
2022-08-30T18:02:11.107Z,26.53
2022-08-30T18:04:39.223Z,26.39
2022-08-30T18:07:11.982Z,26.31
2022-08-30T18:09:40.623Z,26.24
2022-08-30T18:12:08.981Z,26.24
2022-08-30T18:14:39.320Z,26.10
2022-08-30T18:17:09.138Z,26.02
2022-08-30T18:19:46.162Z,25.99
2022-08-30T18:22:14.687Z,25.92
2022-08-30T18:24:42.439Z,25.72
2022-08-30T18:27:10.318Z,25.53
2022-08-30T18:29:38.177Z,25.40
2022-08-30T18:32:06.102Z,25.34
2022-08-30T18:34:40.272Z,25.43
2022-08-30T18:37:11.492Z,25.35
2022-08-30T18:39:41.215Z,25.37
2022-08-30T18:42:09.739Z,25.34
2022-08-30T18:44:37.935Z,25.31
2022-08-30T18:47:06.018Z,25.37
2022-08-30T18:49:35.514Z,25.30
2022-08-30T18:52:08.115Z,25.28
2022-08-30T18:54:40.366Z,25.30
2022-08-30T18:57:07.954Z,25.22
2022-08-30T18:59:38.160Z,25.02
2022-08-30T19:02:06.517Z,25.02
2022-08-30T19:04:35.776Z,24.93
2022-08-30T19:07:06.828Z,24.81
2022-08-30T19:09:34.936Z,24.83
2022-08-30T19:12:02.879Z,24.75
2022-08-30T19:14:31.416Z,24.68
2022-08-30T19:17:02.021Z,24.69
2022-08-30T19:19:32.409Z,24.52
2022-08-30T19:22:02.557Z,24.63
2022-08-30T19:24:31.545Z,24.51
2022-08-30T19:27:00.236Z,24.55
2022-08-30T19:29:28.412Z,24.43
2022-08-30T19:31:56.282Z,24.33
2022-08-30T19:34:24.057Z,24.31
2022-08-30T19:36:52.143Z,24.23
2022-08-30T19:39:20.488Z,24.26
2022-08-30T19:41:51.132Z,24.13
2022-08-30T19:44:19.347Z,24.02
2022-08-30T19:46:47.070Z,23.87
2022-08-30T19:49:15.376Z,23.74
2022-08-30T19:51:46.641Z,23.59
2022-08-30T19:54:14.933Z,23.66
2022-08-30T19:56:42.759Z,23.61
2022-08-30T19:59:11.962Z,23.71
2022-08-30T20:01:39.747Z,23.63
2022-08-30T20:04:07.449Z,23.56
2022-08-30T20:06:35.647Z,23.38
2022-08-30T20:09:03.863Z,23.29
2022-08-30T20:11:31.730Z,23.27
2022-08-30T20:13:59.734Z,23.23
2022-08-30T20:16:35.628Z,23.19
2022-08-30T20:19:06.440Z,23.18
2022-08-30T20:21:34.307Z,23.03
2022-08-30T20:24:04.021Z,22.94
2022-08-30T20:26:34.385Z,22.93
2022-08-30T20:29:03.004Z,23.03
2022-08-30T20:31:34.681Z,23.11
2022-08-30T20:34:02.689Z,23.08
2022-08-30T20:36:30.333Z,22.96
2022-08-30T20:38:58.797Z,22.88
2022-08-30T20:41:28.957Z,22.90
2022-08-30T20:43:58.199Z,22.80
2022-08-30T20:46:27.738Z,22.85
2022-08-30T20:49:01.430Z,23.01
2022-08-30T20:51:29.199Z,22.98
2022-08-30T20:53:58.373Z,22.92
2022-08-30T20:56:27.662Z,22.92
2022-08-30T20:58:55.295Z,22.69
2022-08-30T21:01:24.167Z,22.68
2022-08-30T21:03:51.965Z,22.64
2022-08-30T21:06:21.683Z,22.55
2022-08-30T21:08:49.331Z,22.50
2022-08-30T21:11:16.947Z,22.50
2022-08-30T21:13:44.947Z,22.62
2022-08-30T21:16:12.711Z,22.49
2022-08-30T21:18:40.506Z,22.46
2022-08-30T21:21:14.340Z,22.45
2022-08-30T21:23:43.620Z,22.49
2022-08-30T21:26:11.713Z,22.30
2022-08-30T21:28:40.089Z,22.28
2022-08-30T21:31:10.296Z,22.29
2022-08-30T21:33:38.179Z,22.26
2022-08-30T21:36:24.882Z,22.35
2022-08-30T21:38:54.593Z,22.25
2022-08-30T21:41:28.676Z,22.17
2022-08-30T21:43:57.722Z,22.25
2022-08-30T21:46:26.072Z,22.18
2022-08-30T21:48:54.220Z,22.20
2022-08-30T21:51:22.452Z,22.07
2022-08-30T21:53:50.031Z,22.11
2022-08-30T21:56:22.097Z,22.08
2022-08-30T21:58:50.283Z,22.02
2022-08-30T22:01:22.646Z,22.00
2022-08-30T22:03:51.706Z,21.99
2022-08-30T22:06:19.824Z,21.99
2022-08-30T22:08:50.153Z,21.93
2022-08-30T22:11:24.815Z,21.83
2022-08-30T22:13:54.589Z,21.77
2022-08-30T22:16:23.180Z,21.77
2022-08-30T22:18:52.058Z,21.74
2022-08-30T22:21:22.726Z,21.82
2022-08-30T22:23:50.768Z,21.75
2022-08-30T22:26:21.806Z,21.77
2022-08-30T22:28:49.578Z,21.76
2022-08-30T22:31:18.772Z,21.68
2022-08-30T22:33:47.819Z,21.68
2022-08-30T22:36:17.761Z,21.67
2022-08-30T22:38:45.559Z,21.64
2022-08-30T22:41:17.498Z,21.64
2022-08-30T22:43:47.341Z,21.63
2022-08-30T22:46:16.024Z,21.51
2022-08-30T22:48:46.830Z,21.52
2022-08-30T22:51:16.050Z,21.52
2022-08-30T22:53:45.057Z,21.42
2022-08-30T22:56:14.636Z,21.42
2022-08-30T22:58:42.749Z,21.31
2022-08-30T23:01:19.690Z,21.29
2022-08-30T23:03:47.521Z,21.30
2022-08-30T23:06:15.192Z,21.22
2022-08-30T23:08:42.892Z,21.30
2022-08-30T23:11:11.522Z,21.31
2022-08-30T23:13:39.456Z,21.13
2022-08-30T23:16:09.059Z,21.11
2022-08-30T23:18:39.752Z,21.18
2022-08-30T23:21:10.860Z,21.09
2022-08-30T23:23:57.269Z,21.03
2022-08-30T23:26:42.902Z,20.93
2022-08-30T23:29:28.347Z,20.94
2022-08-30T23:32:13.804Z,20.93
2022-08-30T23:35:00.665Z,20.95
2022-08-30T23:37:46.124Z,20.97
2022-08-30T23:40:34.680Z,20.96
2022-08-30T23:43:19.934Z,21.06
2022-08-30T23:46:05.569Z,21.02
2022-08-30T23:48:52.369Z,20.89
2022-08-30T23:51:39.056Z,20.81
2022-08-30T23:54:24.890Z,20.93
2022-08-30T23:57:10.793Z,20.98
2022-08-30T23:59:56.275Z,20.91
